Time;durP1;ratioP1;P1;durP2;ratioP2;P2;SDS_P1;SDS_P2;PMS_P1;PMS_P2;Temp;Humidity;BMP_temperature;BMP_pressure;BME280_temperature;BME280_humidity;BME280_pressure;Samples;Min_cycle;Max_cycle;Signal;HPM_P1;HPM_P2
2021/09/27 00:00:38;;;;;;;17.63;5.13;;;;;;;;;;4994563;28;20030;-89
2021/09/27 00:03:07;;;;;;;12.82;4.97;;;;;;;;;;4994989;28;20065;-84
2021/09/27 00:05:33;;;;;;;10.02;6.20;;;;;;;;;;4995041;28;20070;-83
2021/09/27 00:07:59;;;;;;;16.65;6.35;;;;;;;;;;4995261;28;20045;-89
2021/09/27 00:10:49;;;;;;;13.25;5.43;;;;;;;;;;4994569;28;20038;-88
2021/09/27 00:13:18;;;;;;;12.50;6.05;;;;;;;;;;4994127;28;20380;-87
2021/09/27 00:15:46;;;;;;;14.75;6.30;;;;;;;;;;4995197;28;20054;-86
2021/09/27 00:18:13;;;;;;;10.68;5.72;;;;;;;;;;4994236;28;20031;-90
2021/09/27 00:20:40;;;;;;;10.00;5.60;;;;;;;;;;4994891;28;20034;-88
2021/09/27 00:23:07;;;;;;;13.45;5.90;;;;;;;;;;4992915;28;20027;-85
2021/09/27 00:25:33;;;;;;;13.88;6.30;;;;;;;;;;4994836;28;20065;-90
2021/09/27 00:27:59;;;;;;;12.77;6.13;;;;;;;;;;4994306;28;20439;-89
2021/09/27 00:30:26;;;;;;;13.25;5.80;;;;;;;;;;4994812;28;20038;-89
2021/09/27 00:32:52;;;;;;;11.05;6.13;;;;;;;;;;4977505;28;20034;-86
2021/09/27 00:35:21;;;;;;;14.13;6.28;;;;;;;;;;4995325;28;20022;-78
2021/09/27 00:37:47;;;;;;;14.75;5.97;;;;;;;;;;4996474;28;20025;-88
2021/09/27 00:40:14;;;;;;;11.88;5.55;;;;;;;;;;4994523;28;20026;-90
2021/09/27 00:42:41;;;;;;;12.13;5.50;;;;;;;;;;4993871;28;20027;-88
2021/09/27 00:45:08;;;;;;;10.57;5.90;;;;;;;;;;4994157;28;20045;-89
2021/09/27 00:47:34;;;;;;;17.50;5.85;;;;;;;;;;4993357;28;20030;-89
2021/09/27 00:50:01;;;;;;;13.90;5.57;;;;;;;;;;4994954;28;20041;-89
2021/09/27 00:52:27;;;;;;;15.02;5.95;;;;;;;;;;4994195;28;20023;-88
2021/09/27 00:54:54;;;;;;;13.50;5.63;;;;;;;;;;4994083;28;20362;-87
2021/09/27 00:57:22;;;;;;;10.65;5.45;;;;;;;;;;4992879;28;21755;-77
2021/09/27 00:59:51;;;;;;;14.30;5.57;;;;;;;;;;4994185;28;20395;-87
2021/09/27 01:02:17;;;;;;;16.55;5.88;;;;;;;;;;4994491;28;20113;-87
2021/09/27 01:04:44;;;;;;;15.20;5.55;;;;;;;;;;4994091;28;20057;-87
2021/09/27 01:07:16;;;;;;;13.52;5.43;;;;;;;;;;4996230;28;20018;-85
2021/09/27 01:09:57;;;;;;;8.57;5.07;;;;;;;;;;4994906;28;20109;-80
2021/09/27 01:12:23;;;;;;;10.32;5.28;;;;;;;;;;4995332;28;20122;-85
2021/09/27 01:14:52;;;;;;;10.38;5.53;;;;;;;;;;4994063;28;20384;-83
2021/09/27 01:17:31;;;;;;;13.18;6.00;;;;;;;;;;4994703;28;20023;-73
2021/09/27 01:20:16;;;;;;;11.65;6.35;;;;;;;;;;4992411;28;20030;-83
2021/09/27 01:22:51;;;;;;;15.30;6.53;;;;;;;;;;4992830;28;20033;-87
2021/09/27 01:25:23;;;;;;;10.98;6.22;;;;;;;;;;4988019;28;20384;-74
2021/09/27 01:28:01;;;;;;;12.85;6.15;;;;;;;;;;4988290;28;20045;-83
2021/09/27 01:30:46;;;;;;;12.80;6.20;;;;;;;;;;4993709;28;20044;-89
2021/09/27 01:33:35;;;;;;;10.23;5.75;;;;;;;;;;4992604;28;20046;-89
2021/09/27 01:36:08;;;;;;;15.32;5.88;;;;;;;;;;4950851;29;20035;-81
2021/09/27 01:38:34;;;;;;;9.57;5.67;;;;;;;;;;4940323;29;20067;-89
2021/09/27 01:41:03;;;;;;;9.48;5.80;;;;;;;;;;4933520;29;20087;-84
2021/09/27 01:43:36;;;;;;;13.20;5.85;;;;;;;;;;4950723;29;20100;-82
2021/09/27 01:46:19;;;;;;;14.45;6.15;;;;;;;;;;4948420;29;20126;-83
2021/09/27 01:48:59;;;;;;;10.95;5.70;;;;;;;;;;4943593;29;20122;-88
2021/09/27 01:51:41;;;;;;;10.88;5.95;;;;;;;;;;4952752;28;20027;-88
2021/09/27 01:54:19;;;;;;;11.55;6.47;;;;;;;;;;4939466;29;20406;-86
2021/09/27 01:56:57;;;;;;;14.40;6.65;;;;;;;;;;4942287;29;20027;-89
2021/09/27 01:59:49;;;;;;;24.60;7.00;;;;;;;;;;4947943;28;20047;-89
2021/09/27 02:02:42;;;;;;;13.50;6.35;;;;;;;;;;4927182;29;20197;-90
2021/09/27 02:05:14;;;;;;;14.50;6.55;;;;;;;;;;4895217;29;20052;-88
2021/09/27 02:07:53;;;;;;;12.07;6.90;;;;;;;;;;4894266;29;20507;-86
2021/09/27 02:10:22;;;;;;;17.63;6.75;;;;;;;;;;4890990;29;20518;-85
2021/09/27 02:12:54;;;;;;;14.10;6.63;;;;;;;;;;4910328;29;20079;-87
2021/09/27 02:15:27;;;;;;;16.40;7.35;;;;;;;;;;4932365;29;20056;-82
2021/09/27 02:18:05;;;;;;;11.60;6.43;;;;;;;;;;4933813;29;20055;-85
2021/09/27 02:20:44;;;;;;;13.00;6.72;;;;;;;;;;4925396;29;20047;-87
2021/09/27 02:23:38;;;;;;;12.43;7.18;;;;;;;;;;4929097;29;20032;-88
2021/09/27 02:26:04;;;;;;;12.43;7.73;;;;;;;;;;4923782;29;20032;-87
2021/09/27 02:28:30;;;;;;;13.10;7.43;;;;;;;;;;4931230;29;20398;-87
2021/09/27 02:31:01;;;;;;;17.58;7.85;;;;;;;;;;4927616;29;20039;-87
2021/09/27 02:33:29;;;;;;;13.40;7.22;;;;;;;;;;4937797;28;20074;-87
2021/09/27 02:36:02;;;;;;;12.30;7.53;;;;;;;;;;4922862;29;20144;-79
2021/09/27 02:38:49;;;;;;;13.73;7.03;;;;;;;;;;4932951;29;20024;-85
2021/09/27 02:41:18;;;;;;;16.83;7.55;;;;;;;;;;4945956;28;20524;-80
2021/09/27 02:43:44;;;;;;;11.45;7.25;;;;;;;;;;5007526;28;20034;-83
2021/09/27 02:46:12;;;;;;;17.80;7.90;;;;;;;;;;5007926;28;20038;-73
2021/09/27 02:48:40;;;;;;;15.15;7.20;;;;;;;;;;4997387;28;20030;-82
2021/09/27 02:51:07;;;;;;;11.85;7.32;;;;;;;;;;5008052;28;20030;-83
2021/09/27 02:53:33;;;;;;;15.98;8.32;;;;;;;;;;5009559;28;20022;-74
2021/09/27 02:56:18;;;;;;;13.93;7.65;;;;;;;;;;5008475;28;20042;-84
2021/09/27 02:58:52;;;;;;;14.23;8.52;;;;;;;;;;5006074;28;20015;-82
2021/09/27 03:01:32;;;;;;;15.68;7.30;;;;;;;;;;4994740;28;20080;-87
2021/09/27 03:04:01;;;;;;;13.70;8.00;;;;;;;;;;5004221;28;20046;-86
2021/09/27 03:06:31;;;;;;;15.13;7.43;;;;;;;;;;5004846;28;20034;-85
2021/09/27 03:09:12;;;;;;;15.23;6.72;;;;;;;;;;5011933;28;20640;-84
2021/09/27 03:11:57;;;;;;;11.73;7.43;;;;;;;;;;5008219;28;20042;-84
2021/09/27 03:14:38;;;;;;;14.65;7.72;;;;;;;;;;5010621;28;20041;-85
2021/09/27 03:17:17;;;;;;;10.40;7.38;;;;;;;;;;5007425;28;20489;-81
2021/09/27 03:19:43;;;;;;;14.25;6.95;;;;;;;;;;5013975;28;20023;-77
2021/09/27 03:22:15;;;;;;;16.27;8.10;;;;;;;;;;5015320;28;20026;-79
2021/09/27 03:24:45;;;;;;;17.30;8.05;;;;;;;;;;5020555;28;20048;-83
2021/09/27 03:27:18;;;;;;;10.90;8.25;;;;;;;;;;5020234;28;20033;-86
2021/09/27 03:30:03;;;;;;;11.68;7.38;;;;;;;;;;5006144;28;20049;-84
2021/09/27 03:32:41;;;;;;;12.98;7.50;;;;;;;;;;5013764;28;20058;-73
2021/09/27 03:35:18;;;;;;;9.50;7.40;;;;;;;;;;5025869;28;20018;-75
2021/09/27 03:37:45;;;;;;;13.52;8.05;;;;;;;;;;5106815;23;20050;-82
2021/09/27 03:40:24;;;;;;;12.40;7.50;;;;;;;;;;5005275;28;20038;-86
2021/09/27 03:42:59;;;;;;;13.88;8.65;;;;;;;;;;5008464;28;20410;-86
2021/09/27 03:45:25;;;;;;;14.32;8.02;;;;;;;;;;4994424;28;20034;-85
2021/09/27 03:48:00;;;;;;;14.90;9.20;;;;;;;;;;5021939;28;20073;-86
2021/09/27 03:50:37;;;;;;;16.48;11.45;;;;;;;;;;5001131;28;20030;-83
2021/09/27 03:53:03;;;;;;;21.15;13.68;;;;;;;;;;4998464;28;20030;-89
2021/09/27 03:55:32;;;;;;;20.58;12.82;;;;;;;;;;5002604;28;20049;-87
2021/09/27 03:58:02;;;;;;;20.38;12.38;;;;;;;;;;4991830;28;20030;-86
2021/09/27 04:00:33;;;;;;;25.10;12.02;;;;;;;;;;5007458;28;20491;-87
2021/09/27 04:03:03;;;;;;;20.92;11.63;;;;;;;;;;4992742;28;20751;-79
2021/09/27 04:05:53;;;;;;;17.35;10.90;;;;;;;;;;4996188;28;20033;-84
2021/09/27 04:08:27;;;;;;;15.73;9.88;;;;;;;;;;4998412;28;20034;-84
2021/09/27 04:10:59;;;;;;;18.48;9.65;;;;;;;;;;4985182;28;20042;-89
2021/09/27 04:13:31;;;;;;;17.45;10.43;;;;;;;;;;4985403;28;20106;-87
2021/09/27 04:16:10;;;;;;;19.55;10.07;;;;;;;;;;4984661;28;20034;-79
2021/09/27 04:18:45;;;;;;;21.58;10.80;;;;;;;;;;4985864;28;20045;-83
2021/09/27 04:21:36;;;;;;;22.63;10.60;;;;;;;;;;4990058;28;20084;-86
2021/09/27 04:24:15;;;;;;;17.45;10.35;;;;;;;;;;4990673;28;20484;-85
2021/09/27 04:26:44;;;;;;;15.88;10.60;;;;;;;;;;4997943;28;20039;-79
2021/09/27 04:29:28;;;;;;;16.20;10.23;;;;;;;;;;4985946;28;20027;-82
2021/09/27 04:32:13;;;;;;;18.83;11.30;;;;;;;;;;4993612;28;20028;-73
2021/09/27 04:34:39;;;;;;;15.98;10.80;;;;;;;;;;4995448;28;20033;-83
2021/09/27 04:37:06;;;;;;;22.80;13.10;;;;;;;;;;4976675;28;20054;-83
2021/09/27 04:39:34;;;;;;;23.42;11.88;;;;;;;;;;4997858;28;20148;-88
2021/09/27 04:42:06;;;;;;;20.30;13.07;;;;;;;;;;4986811;28;20039;-86
2021/09/27 04:44:40;;;;;;;22.77;12.48;;;;;;;;;;4985581;28;20050;-85
2021/09/27 04:47:09;;;;;;;26.65;13.27;;;;;;;;;;4992717;28;20026;-75
2021/09/27 04:49:51;;;;;;;25.80;13.50;;;;;;;;;;4971226;28;20039;-83
2021/09/27 04:52:17;;;;;;;25.13;13.32;;;;;;;;;;4972119;28;20549;-82
2021/09/27 04:54:46;;;;;;;20.38;12.05;;;;;;;;;;4981400;28;20042;-86
2021/09/27 04:57:40;;;;;;;22.35;12.30;;;;;;;;;;5002035;28;20019;-83
2021/09/27 05:00:32;;;;;;;17.40;11.50;;;;;;;;;;5001249;28;20106;-87
2021/09/27 05:02:58;;;;;;;21.02;12.57;;;;;;;;;;4989763;28;20110;-81
2021/09/27 05:05:45;;;;;;;18.63;12.30;;;;;;;;;;5002925;28;20031;-75
2021/09/27 05:08:14;;;;;;;21.17;11.98;;;;;;;;;;4989945;28;20404;-82
2021/09/27 05:10:52;;;;;;;21.83;11.85;;;;;;;;;;4992146;28;20043;-82
2021/09/27 05:13:21;;;;;;;19.42;10.65;;;;;;;;;;4976338;28;20023;-73
2021/09/27 05:15:57;;;;;;;23.50;11.23;;;;;;;;;;4986263;28;20062;-78
2021/09/27 05:18:29;;;;;;;18.75;11.20;;;;;;;;;;4984665;28;20038;-82
2021/09/27 05:20:58;;;;;;;19.67;11.35;;;;;;;;;;4969286;28;20026;-74
2021/09/27 05:23:43;;;;;;;19.00;11.10;;;;;;;;;;4962755;28;20076;-79
2021/09/27 05:26:27;;;;;;;18.85;12.05;;;;;;;;;;4989823;28;20463;-75
2021/09/27 05:29:12;;;;;;;22.67;10.98;;;;;;;;;;4982327;28;20058;-76
2021/09/27 05:31:55;;;;;;;21.50;10.27;;;;;;;;;;4992230;28;20976;-73
2021/09/27 05:34:53;;;;;;;20.73;10.93;;;;;;;;;;4986900;28;20027;-75
2021/09/27 05:37:25;;;;;;;21.17;10.25;;;;;;;;;;4915416;29;20135;-72
2021/09/27 05:40:01;;;;;;;15.32;9.80;;;;;;;;;;4911467;29;20044;-77
2021/09/27 05:42:39;;;;;;;24.60;10.30;;;;;;;;;;4914842;29;20040;-78
2021/09/27 05:45:05;;;;;;;21.42;10.73;;;;;;;;;;4914529;29;20028;-81
2021/09/27 05:47:34;;;;;;;19.48;10.95;;;;;;;;;;4909028;29;20538;-76
2021/09/27 05:50:32;;;;;;;26.52;11.00;;;;;;;;;;4920468;29;20111;-85
2021/09/27 05:53:20;;;;;;;15.75;10.45;;;;;;;;;;4921070;29;20135;-83
2021/09/27 06:01:55;;;;;;;23.27;11.03;;;;;;;;;;5006837;22;20053;-85
2021/09/27 06:04:25;;;;;;;25.10;12.07;;;;;;;;;;4992672;28;20069;-76
2021/09/27 06:07:06;;;;;;;23.00;12.43;;;;;;;;;;4982416;28;20039;-81
2021/09/27 06:09:50;;;;;;;18.48;11.65;;;;;;;;;;4994712;28;20050;-88
2021/09/27 06:12:28;;;;;;;24.98;11.43;;;;;;;;;;4989982;28;20038;-89
2021/09/27 06:14:56;;;;;;;27.35;13.23;;;;;;;;;;4980114;28;20034;-86
2021/09/27 06:17:32;;;;;;;24.88;13.15;;;;;;;;;;4972368;28;20563;-84
2021/09/27 06:20:30;;;;;;;18.25;12.65;;;;;;;;;;4976755;28;20022;-88
2021/09/27 06:22:59;;;;;;;18.75;12.85;;;;;;;;;;4963635;28;20492;-91
2021/09/27 06:25:31;;;;;;;19.20;12.65;;;;;;;;;;4976996;28;20040;-77
2021/09/27 06:28:03;;;;;;;24.90;13.63;;;;;;;;;;4995372;28;20034;-84
2021/09/27 06:30:32;;;;;;;22.02;13.52;;;;;;;;;;4990663;28;20038;-83
2021/09/27 06:33:13;;;;;;;23.42;14.05;;;;;;;;;;4991818;28;20054;-75
2021/09/27 06:35:41;;;;;;;25.33;14.95;;;;;;;;;;4993348;28;20109;-77
2021/09/27 06:38:09;;;;;;;25.98;14.13;;;;;;;;;;4978507;28;20046;-77
2021/09/27 06:40:38;;;;;;;26.70;14.80;;;;;;;;;;4994813;28;20035;-75
2021/09/27 06:43:04;;;;;;;21.42;12.10;;;;;;;;;;4990077;28;20043;-81
2021/09/27 06:45:31;;;;;;;20.92;12.80;;;;;;;;;;4999044;28;20480;-81
2021/09/27 06:47:57;;;;;;;24.50;15.25;;;;;;;;;;4996140;28;20029;-85
2021/09/27 06:50:23;;;;;;;30.35;15.90;;;;;;;;;;4998068;28;20045;-83
2021/09/27 06:52:49;;;;;;;26.55;16.42;;;;;;;;;;4995319;28;20082;-84
2021/09/27 06:55:17;;;;;;;29.38;16.90;;;;;;;;;;4989549;28;20027;-78
2021/09/27 06:57:43;;;;;;;26.92;16.20;;;;;;;;;;4977390;28;20030;-88
2021/09/27 07:00:12;;;;;;;29.58;16.75;;;;;;;;;;4976011;28;20065;-90
2021/09/27 07:02:38;;;;;;;21.13;14.00;;;;;;;;;;4992069;28;20808;-81
2021/09/27 07:05:07;;;;;;;27.23;15.38;;;;;;;;;;4980153;28;20046;-90
2021/09/27 07:07:33;;;;;;;27.33;15.82;;;;;;;;;;4995902;28;20022;-88
2021/09/27 07:09:59;;;;;;;30.10;15.32;;;;;;;;;;4979147;28;20058;-78
2021/09/27 07:12:25;;;;;;;24.50;15.98;;;;;;;;;;4991066;28;20014;-77
2021/09/27 07:14:51;;;;;;;28.55;17.35;;;;;;;;;;4980296;28;20838;-75
2021/09/27 07:17:17;;;;;;;20.88;15.00;;;;;;;;;;4977394;28;20064;-79
2021/09/27 07:19:44;;;;;;;22.50;15.15;;;;;;;;;;4991005;28;20026;-75
2021/09/27 07:22:10;;;;;;;20.52;14.30;;;;;;;;;;4976752;28;20031;-74
2021/09/27 07:24:37;;;;;;;26.02;14.50;;;;;;;;;;4996053;28;20034;-75
2021/09/27 07:27:03;;;;;;;26.58;17.05;;;;;;;;;;4998706;28;20034;-78
2021/09/27 07:29:29;;;;;;;27.23;16.23;;;;;;;;;;4997074;28;20038;-81
2021/09/27 07:31:55;;;;;;;34.38;16.52;;;;;;;;;;4998383;28;20117;-82
2021/09/27 07:34:21;;;;;;;24.73;15.70;;;;;;;;;;4991431;28;20044;-88
2021/09/27 07:36:48;;;;;;;25.83;14.90;;;;;;;;;;4980118;28;20044;-89
2021/09/27 07:39:22;;;;;;;27.83;14.93;;;;;;;;;;4982188;28;20030;-90
2021/09/27 07:41:48;;;;;;;29.40;13.60;;;;;;;;;;4978270;28;20038;-89
2021/09/27 07:44:14;;;;;;;28.23;14.38;;;;;;;;;;4978491;28;20468;-82
2021/09/27 07:46:40;;;;;;;22.52;13.27;;;;;;;;;;4980054;28;20034;-80
2021/09/27 07:49:08;;;;;;;25.27;13.52;;;;;;;;;;4972883;28;20046;-86
2021/09/27 07:51:37;;;;;;;24.20;14.15;;;;;;;;;;4978374;28;20142;-83
2021/09/27 07:54:03;;;;;;;27.80;14.60;;;;;;;;;;4978476;28;20026;-82
2021/09/27 07:56:29;;;;;;;23.35;14.13;;;;;;;;;;4983677;28;20030;-88
2021/09/27 07:58:55;;;;;;;23.55;13.82;;;;;;;;;;4980552;28;20026;-84
2021/09/27 08:01:21;;;;;;;27.10;14.27;;;;;;;;;;4981908;28;20080;-86
2021/09/27 08:03:50;;;;;;;24.13;14.15;;;;;;;;;;4984189;28;20459;-91
2021/09/27 08:06:17;;;;;;;19.35;13.65;;;;;;;;;;4978367;28;20026;-82
2021/09/27 08:08:43;;;;;;;25.67;13.82;;;;;;;;;;4979250;28;20053;-74
2021/09/27 08:11:09;;;;;;;23.52;14.00;;;;;;;;;;4994183;28;20066;-73
2021/09/27 08:13:35;;;;;;;30.52;15.45;;;;;;;;;;4993868;28;20034;-87
2021/09/27 08:16:19;;;;;;;27.65;13.65;;;;;;;;;;4981814;28;20026;-91
2021/09/27 08:18:54;;;;;;;25.88;15.57;;;;;;;;;;4987474;28;20069;-84
2021/09/27 08:21:20;;;;;;;24.92;14.93;;;;;;;;;;4990348;28;20085;-80
2021/09/27 08:23:48;;;;;;;25.67;14.20;;;;;;;;;;4996559;28;20029;-83
2021/09/27 08:26:15;;;;;;;28.63;14.07;;;;;;;;;;4977873;28;20078;-79
2021/09/27 08:28:46;;;;;;;29.00;14.90;;;;;;;;;;4996801;28;20037;-87
2021/09/27 08:31:21;;;;;;;26.35;13.57;;;;;;;;;;4972903;28;20056;-86
2021/09/27 08:33:49;;;;;;;29.50;14.18;;;;;;;;;;4973232;28;20051;-87
2021/09/27 08:36:32;;;;;;;21.85;13.80;;;;;;;;;;4999698;28;20089;-89
2021/09/27 08:38:58;;;;;;;22.10;13.75;;;;;;;;;;4975134;28;20026;-88
2021/09/27 08:41:24;;;;;;;26.70;13.77;;;;;;;;;;4979252;28;20035;-83
2021/09/27 08:43:56;;;;;;;22.67;13.88;;;;;;;;;;4995848;28;20022;-84
2021/09/27 08:46:22;;;;;;;28.95;13.73;;;;;;;;;;4976905;28;20496;-87
2021/09/27 08:48:53;;;;;;;46.05;18.98;;;;;;;;;;4996406;28;20026;-80
2021/09/27 08:51:19;;;;;;;22.60;12.80;;;;;;;;;;4993826;28;20067;-85
2021/09/27 08:53:48;;;;;;;25.48;14.25;;;;;;;;;;4979359;28;20026;-87
2021/09/27 08:56:27;;;;;;;24.58;13.60;;;;;;;;;;4980921;28;20522;-82
2021/09/27 08:58:57;;;;;;;27.63;13.25;;;;;;;;;;4995860;28;20074;-83
2021/09/27 09:01:27;;;;;;;25.90;13.35;;;;;;;;;;4991787;28;20572;-85
2021/09/27 09:04:03;;;;;;;26.90;14.15;;;;;;;;;;4975448;28;20033;-82
2021/09/27 09:06:35;;;;;;;29.98;13.88;;;;;;;;;;4990660;28;20030;-79
2021/09/27 09:09:01;;;;;;;25.17;13.65;;;;;;;;;;4975952;28;20057;-84
2021/09/27 09:11:36;;;;;;;17.52;12.65;;;;;;;;;;4976427;28;20034;-78
2021/09/27 09:14:07;;;;;;;21.90;12.80;;;;;;;;;;4998896;28;20033;-79
2021/09/27 09:16:34;;;;;;;23.70;12.85;;;;;;;;;;4992620;28;20105;-74
2021/09/27 09:19:04;;;;;;;25.10;13.40;;;;;;;;;;4975367;28;20034;-86
2021/09/27 09:21:44;;;;;;;25.13;13.50;;;;;;;;;;4995083;28;20084;-80
2021/09/27 09:24:12;;;;;;;25.65;12.50;;;;;;;;;;4996006;28;20026;-76
2021/09/27 09:26:42;;;;;;;20.92;13.02;;;;;;;;;;4993718;28;20025;-75
2021/09/27 09:29:08;;;;;;;23.52;12.75;;;;;;;;;;4993798;28;20468;-75
2021/09/27 09:31:40;;;;;;;18.23;11.57;;;;;;;;;;4991995;28;20492;-81
2021/09/27 09:34:28;;;;;;;19.85;12.20;;;;;;;;;;4992117;28;20089;-80
2021/09/27 09:36:56;;;;;;;28.15;13.23;;;;;;;;;;4988793;28;21690;-83
2021/09/27 09:39:27;;;;;;;24.35;12.63;;;;;;;;;;4986197;28;20389;-82
2021/09/27 09:41:59;;;;;;;30.90;13.13;;;;;;;;;;4975303;28;20096;-83
2021/09/27 09:44:25;;;;;;;27.65;13.27;;;;;;;;;;4975061;28;20150;-80
2021/09/27 09:46:59;;;;;;;23.17;12.27;;;;;;;;;;4991867;28;20499;-79
2021/09/27 09:49:25;;;;;;;23.05;12.85;;;;;;;;;;4997780;28;20097;-89
2021/09/27 09:52:00;;;;;;;24.00;12.82;;;;;;;;;;4992683;28;20024;-75
2021/09/27 09:54:28;;;;;;;30.08;13.68;;;;;;;;;;4992248;28;20487;-79
2021/09/27 09:57:17;;;;;;;20.42;11.82;;;;;;;;;;4995315;28;20117;-81
2021/09/27 09:59:54;;;;;;;22.63;12.43;;;;;;;;;;4995053;28;20526;-78
2021/09/27 10:02:22;;;;;;;29.73;12.77;;;;;;;;;;4993325;28;20038;-88
2021/09/27 10:04:59;;;;;;;28.80;12.52;;;;;;;;;;4997070;28;20077;-89
2021/09/27 10:07:51;;;;;;;28.63;12.70;;;;;;;;;;4979621;28;20026;-86
2021/09/27 10:10:43;;;;;;;24.67;12.30;;;;;;;;;;4991939;28;20499;-86
2021/09/27 10:13:28;;;;;;;29.45;11.70;;;;;;;;;;4990616;28;20035;-87
2021/09/27 10:15:54;;;;;;;22.73;11.77;;;;;;;;;;4987490;28;20034;-82
2021/09/27 10:18:22;;;;;;;21.27;10.90;;;;;;;;;;4978053;28;20029;-88
2021/09/27 10:21:03;;;;;;;26.98;11.93;;;;;;;;;;4974099;28;20026;-88
2021/09/27 10:23:31;;;;;;;19.48;11.32;;;;;;;;;;4995380;28;20041;-84
2021/09/27 10:26:09;;;;;;;21.92;11.73;;;;;;;;;;4997071;28;20030;-75
2021/09/27 10:28:37;;;;;;;20.42;10.88;;;;;;;;;;4995810;28;20096;-84
2021/09/27 10:31:03;;;;;;;25.02;11.15;;;;;;;;;;4991835;28;20257;-80
2021/09/27 10:33:36;;;;;;;18.98;10.70;;;;;;;;;;4987429;28;20029;-81
2021/09/27 10:36:04;;;;;;;22.23;10.23;;;;;;;;;;4996853;28;20034;-75
2021/09/27 10:38:33;;;;;;;21.30;11.23;;;;;;;;;;5003836;28;20026;-87
2021/09/27 10:41:03;;;;;;;20.58;9.90;;;;;;;;;;4995184;28;20085;-78
2021/09/27 10:43:29;;;;;;;22.10;10.55;;;;;;;;;;4995217;28;20554;-82
2021/09/27 10:45:58;;;;;;;20.30;10.63;;;;;;;;;;4999785;28;20029;-83
2021/09/27 10:48:24;;;;;;;16.27;10.57;;;;;;;;;;4994367;28;20030;-84
2021/09/27 10:50:53;;;;;;;23.02;10.75;;;;;;;;;;4992059;28;20473;-78
2021/09/27 10:53:32;;;;;;;22.00;10.00;;;;;;;;;;4978272;28;20500;-80
2021/09/27 10:56:01;;;;;;;21.23;10.32;;;;;;;;;;4981058;28;20047;-75
2021/09/27 10:58:36;;;;;;;19.10;10.27;;;;;;;;;;4979594;28;20388;-81
2021/09/27 11:01:04;;;;;;;18.77;10.25;;;;;;;;;;4982518;28;20050;-80
2021/09/27 11:03:39;;;;;;;18.08;10.32;;;;;;;;;;4982980;28;20110;-83
2021/09/27 11:06:23;;;;;;;19.52;10.25;;;;;;;;;;4982442;28;20025;-79
2021/09/27 11:08:53;;;;;;;21.58;10.35;;;;;;;;;;4979888;28;20046;-83
2021/09/27 11:11:29;;;;;;;21.77;9.93;;;;;;;;;;4983421;28;20033;-78
2021/09/27 11:13:55;;;;;;;23.38;10.02;;;;;;;;;;4992618;28;20027;-78
2021/09/27 11:16:24;;;;;;;18.17;10.38;;;;;;;;;;4987014;28;20030;-80
2021/09/27 11:18:54;;;;;;;20.38;9.65;;;;;;;;;;4992561;28;20023;-81
2021/09/27 11:21:42;;;;;;;18.63;9.25;;;;;;;;;;4992185;28;20026;-80
2021/09/27 11:24:12;;;;;;;16.90;9.23;;;;;;;;;;4992950;28;20030;-75
2021/09/27 11:26:58;;;;;;;17.70;9.10;;;;;;;;;;4990890;28;20091;-77
2021/09/27 11:29:46;;;;;;;18.98;8.90;;;;;;;;;;4980859;28;20039;-80
2021/09/27 11:32:28;;;;;;;17.98;9.25;;;;;;;;;;4931406;29;20047;-80
2021/09/27 11:34:54;;;;;;;19.63;9.97;;;;;;;;;;4935662;29;20043;-82
2021/09/27 11:37:23;;;;;;;18.50;9.65;;;;;;;;;;4930077;29;20032;-77
2021/09/27 11:39:52;;;;;;;15.60;8.93;;;;;;;;;;4931166;29;20031;-80
2021/09/27 11:42:18;;;;;;;17.92;9.13;;;;;;;;;;4935944;29;20549;-76
2021/09/27 11:45:14;;;;;;;22.38;9.25;;;;;;;;;;4935420;29;20044;-74
2021/09/27 11:47:43;;;;;;;19.73;9.27;;;;;;;;;;4932284;29;20040;-76
2021/09/27 11:50:47;;;;;;;22.73;8.93;;;;;;;;;;4931641;29;20118;-80
2021/09/27 11:53:21;;;;;;;19.42;9.32;;;;;;;;;;4930999;29;20032;-80
2021/09/27 11:55:50;;;;;;;17.42;9.27;;;;;;;;;;4929032;29;20040;-82
2021/09/27 11:58:24;;;;;;;20.98;8.77;;;;;;;;;;4937085;29;20370;-78
2021/09/27 12:00:54;;;;;;;18.17;9.23;;;;;;;;;;4929170;29;20075;-80
2021/09/27 12:03:24;;;;;;;20.58;9.88;;;;;;;;;;4932299;29;20071;-80
2021/09/27 12:05:52;;;;;;;21.77;9.50;;;;;;;;;;4932428;29;20439;-79
2021/09/27 12:08:27;;;;;;;18.60;8.98;;;;;;;;;;4943415;28;20030;-74
2021/09/27 12:10:59;;;;;;;17.50;8.93;;;;;;;;;;4975674;28;20074;-77
2021/09/27 12:13:27;;;;;;;22.50;9.25;;;;;;;;;;4974383;28;20046;-76
2021/09/27 12:15:55;;;;;;;23.40;9.30;;;;;;;;;;4977437;28;20031;-73
2021/09/27 12:18:59;;;;;;;22.40;9.40;;;;;;;;;;4971051;28;20046;-82
2021/09/27 12:21:31;;;;;;;18.77;9.30;;;;;;;;;;4907802;29;20047;-92
2021/09/27 12:23:59;;;;;;;20.38;9.13;;;;;;;;;;4895818;29;20035;-87
2021/09/27 12:26:25;;;;;;;17.15;8.98;;;;;;;;;;4908999;29;20024;-76
2021/09/27 12:29:11;;;;;;;20.77;9.43;;;;;;;;;;4912745;29;20032;-85
2021/09/27 12:31:44;;;;;;;17.83;9.10;;;;;;;;;;4917806;29;20048;-87
2021/09/27 12:34:12;;;;;;;17.20;9.43;;;;;;;;;;4910984;29;20031;-86
2021/09/27 12:36:38;;;;;;;27.58;9.40;;;;;;;;;;4914736;29;20044;-80
2021/09/27 12:39:05;;;;;;;18.58;9.25;;;;;;;;;;4906381;29;20056;-79
2021/09/27 12:41:31;;;;;;;17.90;9.05;;;;;;;;;;4894669;29;20032;-79
2021/09/27 12:44:08;;;;;;;15.68;9.00;;;;;;;;;;4904482;29;20039;-82
2021/09/27 12:46:35;;;;;;;18.20;8.35;;;;;;;;;;4908427;29;20039;-85
2021/09/27 12:49:03;;;;;;;14.90;7.47;;;;;;;;;;4920376;29;20107;-81
2021/09/27 12:51:32;;;;;;;19.02;8.25;;;;;;;;;;4891644;29;20045;-84
2021/09/27 12:54:00;;;;;;;21.52;8.98;;;;;;;;;;4894080;29;20044;-83
2021/09/27 12:56:27;;;;;;;22.08;8.32;;;;;;;;;;4968154;28;20034;-85
2021/09/27 12:58:53;;;;;;;16.45;7.85;;;;;;;;;;4972243;28;20027;-87
2021/09/27 13:01:20;;;;;;;22.27;7.78;;;;;;;;;;4975510;28;20051;-87
2021/09/27 13:04:02;;;;;;;15.38;7.68;;;;;;;;;;4976411;28;20117;-89
2021/09/27 13:06:29;;;;;;;18.45;7.47;;;;;;;;;;4986911;28;20034;-82
2021/09/27 13:09:14;;;;;;;18.48;8.02;;;;;;;;;;4973650;28;20061;-84
2021/09/27 13:11:44;;;;;;;18.60;8.07;;;;;;;;;;4972245;28;20181;-85
2021/09/27 13:14:22;;;;;;;18.80;7.93;;;;;;;;;;4973500;28;20031;-83
2021/09/27 13:16:55;;;;;;;17.05;7.43;;;;;;;;;;4976072;28;20109;-77
2021/09/27 13:19:33;;;;;;;16.30;6.97;;;;;;;;;;4967336;28;20038;-78
2021/09/27 13:21:59;;;;;;;17.75;8.00;;;;;;;;;;4974108;28;20073;-72
2021/09/27 13:24:30;;;;;;;22.08;7.97;;;;;;;;;;4973138;28;20111;-78
2021/09/27 13:27:02;;;;;;;15.25;6.97;;;;;;;;;;4973432;28;20469;-85
2021/09/27 13:29:36;;;;;;;13.02;7.15;;;;;;;;;;4974008;28;20539;-79
2021/09/27 13:32:04;;;;;;;14.90;6.65;;;;;;;;;;4977481;28;20644;-77
2021/09/27 13:34:33;;;;;;;11.90;7.05;;;;;;;;;;4974497;28;20038;-79
2021/09/27 13:37:00;;;;;;;11.98;6.70;;;;;;;;;;4973738;28;20518;-84
2021/09/27 13:39:31;;;;;;;18.23;7.95;;;;;;;;;;4972899;28;20117;-76
2021/09/27 13:42:05;;;;;;;15.98;7.43;;;;;;;;;;4975123;28;20050;-74
2021/09/27 13:44:37;;;;;;;18.25;8.02;;;;;;;;;;4974974;28;20037;-74
2021/09/27 13:47:04;;;;;;;13.15;7.45;;;;;;;;;;4971063;28;20034;-74
2021/09/27 13:49:31;;;;;;;18.15;8.23;;;;;;;;;;4973772;28;20023;-75
2021/09/27 13:51:58;;;;;;;15.43;7.22;;;;;;;;;;4970468;28;20565;-75
2021/09/27 13:54:24;;;;;;;12.43;7.53;;;;;;;;;;4965227;28;20047;-74
2021/09/27 13:56:50;;;;;;;17.08;7.85;;;;;;;;;;4961982;28;20023;-75
2021/09/27 13:59:16;;;;;;;16.23;8.10;;;;;;;;;;4966087;28;20026;-74
2021/09/27 14:01:42;;;;;;;18.13;7.53;;;;;;;;;;4960089;28;20057;-74
2021/09/27 14:04:08;;;;;;;16.67;7.32;;;;;;;;;;4968211;28;20037;-75
2021/09/27 14:06:35;;;;;;;14.68;8.25;;;;;;;;;;4963341;28;20019;-74
2021/09/27 14:09:01;;;;;;;12.60;7.28;;;;;;;;;;4961109;28;20520;-75
2021/09/27 14:11:27;;;;;;;19.08;8.20;;;;;;;;;;4969011;28;20066;-77
2021/09/27 14:13:54;;;;;;;16.33;8.00;;;;;;;;;;4963940;28;20027;-76
2021/09/27 14:16:20;;;;;;;14.80;7.85;;;;;;;;;;4967574;28;20393;-73
2021/09/27 14:18:47;;;;;;;16.48;7.68;;;;;;;;;;4969974;28;20100;-77
2021/09/27 14:21:15;;;;;;;16.10;7.70;;;;;;;;;;4965029;28;20481;-74
2021/09/27 14:23:42;;;;;;;13.63;7.43;;;;;;;;;;4963832;28;20547;-84
2021/09/27 14:26:09;;;;;;;16.23;7.70;;;;;;;;;;4969760;28;20015;-86
2021/09/27 14:28:36;;;;;;;12.73;7.30;;;;;;;;;;4969948;28;20512;-82
2021/09/27 14:31:04;;;;;;;17.40;8.05;;;;;;;;;;4971195;28;20043;-78
2021/09/27 14:33:30;;;;;;;16.92;7.45;;;;;;;;;;4971778;28;20455;-77
2021/09/27 14:35:56;;;;;;;16.75;7.63;;;;;;;;;;4972142;28;20031;-86
2021/09/27 14:38:23;;;;;;;13.93;8.00;;;;;;;;;;4972013;28;20030;-81
2021/09/27 14:40:49;;;;;;;14.57;7.38;;;;;;;;;;4971503;28;20142;-79
2021/09/27 14:43:16;;;;;;;11.70;7.32;;;;;;;;;;4974028;28;20061;-79
2021/09/27 14:45:42;;;;;;;16.33;7.55;;;;;;;;;;4974694;28;20114;-79
2021/09/27 14:48:08;;;;;;;21.30;7.90;;;;;;;;;;4974481;28;20030;-78
2021/09/27 14:50:36;;;;;;;11.82;7.65;;;;;;;;;;4972146;28;20043;-79
2021/09/27 14:53:03;;;;;;;12.30;7.05;;;;;;;;;;4972742;28;20423;-86
2021/09/27 14:55:30;;;;;;;12.75;7.63;;;;;;;;;;4971520;28;20030;-75
2021/09/27 14:57:56;;;;;;;16.33;8.05;;;;;;;;;;4978100;28;20499;-73